createdAt,value
2022-12-12T00:00:18.065Z,93
2022-12-12T00:05:22.641Z,92
2022-12-12T00:10:28.897Z,93
2022-12-12T00:15:17.655Z,93
2022-12-12T00:20:24.523Z,93
2022-12-12T00:25:29.856Z,93
2022-12-12T00:30:18.805Z,93
2022-12-12T00:35:24.903Z,93
2022-12-12T00:40:35.927Z,94
2022-12-12T00:45:20.055Z,94
2022-12-12T00:50:26.060Z,94
2022-12-12T00:55:32.091Z,95
2022-12-12T01:00:21.961Z,95
2022-12-12T01:05:27.565Z,95
2022-12-12T01:10:16.246Z,95
2022-12-12T01:15:22.407Z,95
2022-12-12T01:20:29.685Z,95
2022-12-12T01:25:17.359Z,96
2022-12-12T01:30:23.617Z,96
2022-12-12T01:35:29.482Z,96
2022-12-12T01:40:19.502Z,96
2022-12-12T01:45:24.693Z,96
2022-12-12T01:50:30.667Z,96
2022-12-12T01:55:19.682Z,96
2022-12-12T02:00:27.059Z,96
2022-12-12T02:05:32.803Z,96
2022-12-12T02:10:19.834Z,96
2022-12-12T02:15:26.205Z,96
2022-12-12T02:20:33.201Z,96
2022-12-12T02:25:21.083Z,96
2022-12-12T02:30:27.201Z,96
2022-12-12T02:35:16.102Z,96
2022-12-12T02:40:23.112Z,96
2022-12-12T02:45:28.485Z,95
2022-12-12T02:50:17.310Z,95
2022-12-12T02:55:23.349Z,95
2022-12-12T03:00:30.692Z,95
2022-12-12T03:05:17.934Z,95
2022-12-12T03:10:23.894Z,95
2022-12-12T03:15:30.118Z,95
2022-12-12T03:20:20.064Z,95
2022-12-12T03:25:25.048Z,95
2022-12-12T03:30:31.209Z,95
2022-12-12T03:35:20.137Z,95
2022-12-12T03:40:27.321Z,95
2022-12-12T03:45:32.434Z,95
2022-12-12T03:50:21.329Z,95
2022-12-12T03:55:27.483Z,95
2022-12-12T04:00:17.249Z,95
2022-12-12T04:05:23.103Z,96
2022-12-12T04:10:28.568Z,96
2022-12-12T04:15:17.668Z,96
2022-12-12T04:20:24.832Z,96
2022-12-12T04:25:29.702Z,96
2022-12-12T04:30:19.658Z,96
2022-12-12T04:35:24.855Z,96
2022-12-12T04:40:50.830Z,96
2022-12-12T04:45:20.012Z,96
2022-12-12T04:50:26.078Z,96
2022-12-12T04:55:32.036Z,96
2022-12-12T05:00:22.141Z,96
2022-12-12T05:05:26.576Z,96
2022-12-12T05:10:32.392Z,96
2022-12-12T05:15:21.284Z,96
2022-12-12T05:20:44.553Z,96
2022-12-12T05:25:16.508Z,96
2022-12-12T05:30:22.536Z,96
2022-12-12T05:35:28.530Z,96
2022-12-12T05:40:18.196Z,96
2022-12-12T05:45:23.755Z,96
2022-12-12T05:50:29.988Z,96
2022-12-12T05:55:18.700Z,96
2022-12-12T06:00:25.786Z,96
2022-12-12T06:05:30.183Z,96
2022-12-12T06:10:19.443Z,96
2022-12-12T06:15:25.571Z,96
2022-12-12T06:20:35.915Z,96
2022-12-12T06:25:20.577Z,96
2022-12-12T06:30:26.661Z,96
2022-12-12T06:35:32.853Z,96
2022-12-12T06:40:32.606Z,96
2022-12-12T06:45:27.840Z,96
2022-12-12T06:50:23.445Z,96
2022-12-12T06:55:22.961Z,96
2022-12-12T07:00:29.895Z,96
2022-12-12T07:05:17.435Z,96
2022-12-12T07:10:23.239Z,96
2022-12-12T07:15:29.253Z,96
2022-12-12T07:20:19.490Z,96
2022-12-12T07:25:24.308Z,96
2022-12-12T07:30:30.349Z,95
2022-12-12T07:35:19.483Z,95
2022-12-12T07:40:33.949Z,95
2022-12-12T07:45:31.492Z,95
2022-12-12T07:50:20.664Z,95
2022-12-12T07:55:26.776Z,95
2022-12-12T08:00:47.085Z,95
2022-12-12T08:05:22.624Z,95
2022-12-12T08:10:27.034Z,95
2022-12-12T08:15:16.115Z,95
2022-12-12T08:20:23.080Z,95
2022-12-12T08:25:28.079Z,95
2022-12-12T08:30:17.136Z,95
2022-12-12T08:35:23.061Z,94
2022-12-12T08:40:30.225Z,92
2022-12-12T08:45:18.252Z,93
2022-12-12T08:50:24.381Z,90
2022-12-12T08:55:30.352Z,89
2022-12-12T09:00:19.924Z,83
2022-12-12T09:05:24.861Z,83
2022-12-12T09:10:31.499Z,86
2022-12-12T09:15:20.649Z,87
2022-12-12T09:20:27.867Z,87
2022-12-12T09:25:32.957Z,87
2022-12-12T09:30:21.674Z,87
2022-12-12T09:35:27.869Z,86
2022-12-12T09:40:17.745Z,87
2022-12-12T09:45:23.064Z,88
2022-12-12T09:50:28.935Z,88
2022-12-12T09:55:18.054Z,88
2022-12-12T10:00:36.229Z,87
2022-12-12T10:05:29.488Z,86
2022-12-12T10:10:18.215Z,85
2022-12-12T10:15:24.207Z,84
2022-12-12T10:20:31.394Z,84
2022-12-12T10:25:19.329Z,83
2022-12-12T10:30:25.326Z,82
2022-12-12T10:35:32.132Z,82
2022-12-12T10:40:21.147Z,82
2022-12-12T10:45:26.645Z,82
2022-12-12T10:50:33.610Z,81
2022-12-12T10:55:21.702Z,81
2022-12-12T11:00:28.722Z,81
2022-12-12T11:05:16.364Z,81
2022-12-12T11:10:22.406Z,80
2022-12-12T11:15:27.889Z,80
2022-12-12T11:20:17.981Z,80
2022-12-12T11:25:23.048Z,79
2022-12-12T11:30:29.317Z,78
2022-12-12T11:35:18.074Z,76
2022-12-12T11:40:38.211Z,75
2022-12-12T11:45:30.211Z,74
2022-12-12T11:50:19.212Z,74
2022-12-12T11:55:25.316Z,74
2022-12-12T12:00:32.405Z,73
2022-12-12T12:05:20.836Z,73
2022-12-12T12:10:26.535Z,72
2022-12-12T12:15:32.615Z,72
2022-12-12T12:20:50.911Z,71
2022-12-12T12:25:27.651Z,71
2022-12-12T12:30:16.632Z,71
2022-12-12T12:35:22.785Z,71
2022-12-12T12:40:44.091Z,70
2022-12-12T12:45:17.945Z,70
2022-12-12T12:50:23.950Z,71
2022-12-12T12:55:29.924Z,70
2022-12-12T13:00:19.833Z,69
2022-12-12T13:05:24.402Z,68
2022-12-12T13:10:30.174Z,68
2022-12-12T13:15:19.155Z,68
2022-12-12T13:20:26.329Z,67
2022-12-12T13:25:31.434Z,67
2022-12-12T13:30:20.407Z,66
2022-12-12T13:35:26.688Z,66
2022-12-12T13:40:33.517Z,65
2022-12-12T13:45:21.546Z,66
2022-12-12T13:50:27.600Z,65
2022-12-12T13:55:16.621Z,65
2022-12-12T14:00:24.379Z,66
2022-12-12T14:05:28.824Z,66
2022-12-12T14:10:16.886Z,66
2022-12-12T14:15:22.974Z,67
2022-12-12T14:20:29.854Z,68
2022-12-12T14:25:18.127Z,68
2022-12-12T14:30:24.090Z,69
2022-12-12T14:35:30.460Z,69
2022-12-12T14:40:20.308Z,69
2022-12-12T14:45:25.304Z,70
2022-12-12T14:50:31.372Z,70
2022-12-12T14:55:20.350Z,71
2022-12-12T15:00:27.216Z,71
2022-12-12T15:05:31.742Z,72
2022-12-12T15:10:20.871Z,73
2022-12-12T15:15:26.728Z,74
2022-12-12T15:20:16.787Z,74
2022-12-12T15:25:21.908Z,75
2022-12-12T15:30:27.954Z,75
2022-12-12T15:35:17.023Z,77
2022-12-12T15:40:24.066Z,79
2022-12-12T15:45:29.069Z,81
2022-12-12T15:50:18.154Z,82
2022-12-12T15:55:24.247Z,84
2022-12-12T16:00:37.582Z,84
2022-12-12T16:05:19.930Z,84
2022-12-12T16:10:25.447Z,85
2022-12-12T16:15:31.395Z,85
2022-12-12T16:20:25.744Z,85
2022-12-12T16:25:26.579Z,86
2022-12-12T16:30:32.584Z,86
2022-12-12T16:35:21.580Z,86
2022-12-12T16:40:35.465Z,86
2022-12-12T16:45:16.751Z,86
2022-12-12T16:50:22.820Z,87
2022-12-12T16:55:28.820Z,88
2022-12-12T17:00:19.075Z,88
2022-12-12T17:05:23.244Z,88
2022-12-12T17:10:29.066Z,88
2022-12-12T17:15:18.130Z,89
2022-12-12T17:20:27.013Z,89
2022-12-12T17:25:30.261Z,89
2022-12-12T17:30:19.323Z,89
2022-12-12T17:35:25.283Z,89
2022-12-12T17:40:32.250Z,89
2022-12-12T17:45:21.188Z,89
2022-12-12T17:50:26.571Z,90
2022-12-12T17:55:53.431Z,90
2022-12-12T18:00:24.367Z,90
2022-12-12T18:05:29.379Z,90
2022-12-12T18:10:16.017Z,91
2022-12-12T18:15:21.908Z,91
2022-12-12T18:20:31.261Z,91
2022-12-12T18:25:17.025Z,92
2022-12-12T18:30:23.057Z,92
2022-12-12T18:35:29.141Z,92
2022-12-12T18:40:34.805Z,92
2022-12-12T18:45:24.180Z,93
2022-12-12T18:50:30.382Z,93
2022-12-12T18:55:19.370Z,93
2022-12-12T19:00:26.737Z,93
2022-12-12T19:05:30.701Z,93
2022-12-12T19:10:20.503Z,93
2022-12-12T19:15:26.830Z,93
2022-12-12T19:20:46.804Z,94
2022-12-12T19:25:21.756Z,94
2022-12-12T19:30:27.892Z,94
2022-12-12T19:35:16.902Z,94
2022-12-12T19:40:23.977Z,94
2022-12-12T19:45:28.916Z,94
2022-12-12T19:50:18.035Z,94
2022-12-12T19:55:24.065Z,94
2022-12-12T20:00:31.040Z,94
2022-12-12T20:05:18.533Z,95
2022-12-12T20:10:24.308Z,95
2022-12-12T20:15:30.568Z,95
2022-12-12T20:20:20.293Z,95
2022-12-12T20:25:25.588Z,95
2022-12-12T20:30:31.698Z,95
2022-12-12T20:35:20.599Z,95
2022-12-12T20:40:27.499Z,95
2022-12-12T20:45:32.701Z,95
2022-12-12T20:50:21.774Z,95
2022-12-12T20:55:28.657Z,95
2022-12-12T21:00:17.935Z,95
2022-12-12T21:05:22.802Z,95
2022-12-12T21:10:28.982Z,95
2022-12-12T21:15:18.296Z,95
2022-12-12T21:20:25.784Z,95
2022-12-12T21:25:30.083Z,95
2022-12-12T21:30:19.062Z,95
2022-12-12T21:35:25.125Z,95
2022-12-12T21:40:47.053Z,95
2022-12-12T21:45:20.250Z,95
2022-12-12T21:50:30.657Z,95
2022-12-12T21:55:32.432Z,95
2022-12-12T22:00:22.617Z,95
2022-12-12T22:05:28.582Z,95
2022-12-12T22:10:16.600Z,95
2022-12-12T22:15:22.758Z,95
2022-12-12T22:20:34.636Z,95
2022-12-12T22:25:17.674Z,95
2022-12-12T22:30:23.744Z,95
2022-12-12T22:35:29.868Z,95
2022-12-12T22:40:20.233Z,95
2022-12-12T22:45:24.992Z,95
2022-12-12T22:50:30.983Z,95
2022-12-12T22:55:19.980Z,95
2022-12-12T23:00:35.149Z,95
2022-12-12T23:05:31.484Z,95
2022-12-12T23:10:20.303Z,95
2022-12-12T23:15:27.752Z,95
2022-12-12T23:20:33.470Z,95
2022-12-12T23:25:21.509Z,95
2022-12-12T23:30:27.484Z,95
2022-12-12T23:35:16.955Z,94
2022-12-12T23:40:23.823Z,95
2022-12-12T23:45:29.064Z,95
2022-12-12T23:50:17.669Z,95
2022-12-12T23:55:23.769Z,95
